Time;durP1;ratioP1;P1;durP2;ratioP2;P2;SDS_P1;SDS_P2;PMS_P1;PMS_P2;Temp;Humidity;BMP_temperature;BMP_pressure;BME280_temperature;BME280_humidity;BME280_pressure;Samples;Min_cycle;Max_cycle;Signal;HPM_P1;HPM_P2
2024/03/22 00:00:28;;;;;;;29.20;23.00;;;;;;;9.17;100.00;102908.81;5004694;28;20207;-71
2024/03/22 00:02:53;;;;;;;32.83;24.23;;;;;;;9.19;100.00;102911.31;4996741;28;20270;-71
2024/03/22 00:05:21;;;;;;;30.80;23.63;;;;;;;8.64;100.00;102833.34;5007885;28;20213;-71
2024/03/22 00:07:46;;;;;;;29.57;22.70;;;;;;;8.47;100.00;102776.84;4987514;28;20189;-71
2024/03/22 00:10:11;;;;;;;29.30;22.10;;;;;;;8.55;100.00;102777.00;5008089;28;20496;-71
2024/03/22 00:12:37;;;;;;;30.43;22.30;;;;;;;8.89;100.00;102837.34;5011712;28;20466;-71
2024/03/22 00:15:02;;;;;;;29.13;22.07;;;;;;;9.19;100.00;102901.47;5011568;28;20185;-72
2024/03/22 00:17:28;;;;;;;35.00;24.57;;;;;;;8.39;100.00;102755.31;5010693;28;20484;-71
2024/03/22 00:19:53;;;;;;;30.63;23.20;;;;;;;9.04;100.00;102868.91;5011847;28;20185;-71
2024/03/22 00:22:19;;;;;;;28.07;22.17;;;;;;;9.23;100.00;102884.16;5008847;28;20211;-71
2024/03/22 00:24:45;;;;;;;27.03;21.43;;;;;;;9.30;100.00;102886.25;5007803;28;20213;-71
2024/03/22 00:27:12;;;;;;;28.40;22.57;;;;;;;9.25;100.00;102881.31;5008282;28;20559;-71
2024/03/22 00:29:38;;;;;;;29.43;23.13;;;;;;;9.26;100.00;102875.84;4989322;28;20466;-71
2024/03/22 00:32:04;;;;;;;28.47;21.53;;;;;;;8.59;100.00;102775.75;5006323;28;20495;-72
2024/03/22 00:34:29;;;;;;;29.83;21.90;;;;;;;9.29;100.00;102874.72;5004202;28;20264;-71
2024/03/22 00:36:54;;;;;;;27.70;22.07;;;;;;;9.37;100.00;102861.44;5002631;28;21002;-71
2024/03/22 00:39:20;;;;;;;32.43;22.80;;;;;;;8.90;100.00;102798.88;5002003;28;20193;-71
2024/03/22 00:41:45;;;;;;;28.90;22.87;;;;;;;9.27;100.00;102853.41;4999866;28;20259;-71
2024/03/22 00:44:11;;;;;;;30.00;23.77;;;;;;;8.96;100.00;102795.63;4996503;28;20224;-71
2024/03/22 00:46:36;;;;;;;33.90;25.20;;;;;;;9.27;100.00;102852.56;5006600;28;20185;-71
2024/03/22 00:49:02;;;;;;;31.40;22.20;;;;;;;8.44;100.00;102686.19;5002348;28;20203;-71
2024/03/22 00:51:28;;;;;;;31.00;22.37;;;;;;;8.66;100.00;102733.22;5004418;28;20224;-71
2024/03/22 00:53:53;;;;;;;30.20;22.40;;;;;;;9.37;100.00;102836.50;4994743;28;20192;-71
2024/03/22 00:56:19;;;;;;;27.30;20.73;;;;;;;8.41;100.00;102686.47;4986367;28;20529;-71
2024/03/22 00:58:44;;;;;;;32.40;24.50;;;;;;;8.64;100.00;102704.94;4999527;28;20177;-71
2024/03/22 01:01:10;;;;;;;31.70;24.30;;;;;;;8.56;100.00;102690.44;5002895;28;20209;-71
2024/03/22 01:03:35;;;;;;;34.87;25.03;;;;;;;9.28;100.00;102800.69;4998678;28;20185;-71
2024/03/22 01:06:01;;;;;;;28.97;22.90;;;;;;;8.73;100.00;102694.22;4980072;28;20213;-71
2024/03/22 01:08:27;;;;;;;29.47;22.70;;;;;;;8.60;100.00;102689.16;4987201;28;20288;-71
2024/03/22 01:10:53;;;;;;;31.80;24.60;;;;;;;8.70;100.00;102696.34;4991391;28;20441;-70
2024/03/22 01:13:18;;;;;;;30.27;23.63;;;;;;;9.07;100.00;102720.53;5011865;28;20197;-71
2024/03/22 01:15:45;;;;;;;37.10;25.27;;;;;;;9.10;100.00;102748.84;5014293;28;20645;-71
2024/03/22 01:18:11;;;;;;;32.00;24.80;;;;;;;8.90;100.00;102716.75;4989740;28;20185;-71
2024/03/22 01:20:37;;;;;;;30.90;23.53;;;;;;;9.07;100.00;102728.56;5009140;28;21002;-72
2024/03/22 01:23:02;;;;;;;32.47;24.93;;;;;;;9.21;100.00;102756.75;5009591;28;20736;-71
2024/03/22 01:25:28;;;;;;;33.40;24.53;;;;;;;8.82;100.00;102700.56;4998943;28;20221;-71
2024/03/22 01:27:53;;;;;;;34.17;24.37;;;;;;;9.30;100.00;102725.59;5001376;28;20192;-71
2024/03/22 01:30:19;;;;;;;33.00;24.67;;;;;;;9.37;100.00;102750.78;4985222;28;20192;-71
2024/03/22 01:32:44;;;;;;;34.40;25.90;;;;;;;8.59;100.00;102625.09;4979722;28;20217;-71
2024/03/22 01:35:10;;;;;;;33.40;25.13;;;;;;;9.11;100.00;102697.84;4976111;28;20196;-71
2024/03/22 01:37:35;;;;;;;34.97;24.20;;;;;;;8.78;100.00;102627.75;4975354;28;20185;-71
2024/03/22 01:40:01;;;;;;;38.97;26.90;;;;;;;8.58;100.00;102618.91;4979878;28;20709;-71
2024/03/22 01:42:26;;;;;;;40.70;26.77;;;;;;;8.80;100.00;102639.16;4996685;28;20660;-71
2024/03/22 01:44:52;;;;;;;36.00;25.90;;;;;;;9.11;100.00;102668.38;5001114;28;20225;-70
2024/03/22 01:47:17;;;;;;;34.90;25.03;;;;;;;8.72;100.00;102641.69;5001308;28;20197;-71
2024/03/22 01:49:43;;;;;;;37.47;25.20;;;;;;;8.81;100.00;102638.16;5034432;23;20227;-69
2024/03/22 01:52:09;;;;;;;33.13;25.70;;;;;;;9.30;100.00;102688.94;5009221;28;20205;-69
2024/03/22 01:54:34;;;;;;;37.87;27.17;;;;;;;9.09;100.00;102629.41;4998902;28;20432;-70
2024/03/22 01:57:01;;;;;;;39.43;28.13;;;;;;;9.55;100.00;102698.16;4999230;28;20763;-70
2024/03/22 01:59:28;;;;;;;35.83;26.90;;;;;;;9.53;100.00;102694.78;4994011;28;20658;-69
2024/03/22 02:01:53;;;;;;;37.47;27.07;;;;;;;9.32;100.00;102657.50;5003837;28;20455;-68
2024/03/22 02:04:18;;;;;;;36.10;27.73;;;;;;;8.85;100.00;102560.28;5002832;28;20452;-67
2024/03/22 02:06:44;;;;;;;41.00;29.63;;;;;;;9.42;100.00;102663.66;4994732;28;20197;-67
2024/03/22 02:09:09;;;;;;;43.60;28.67;;;;;;;9.27;100.00;102649.06;4982285;28;20875;-67
2024/03/22 02:11:37;;;;;;;39.07;29.90;;;;;;;9.72;100.00;102697.41;4975805;28;20292;-67
2024/03/22 02:14:03;;;;;;;36.97;28.20;;;;;;;9.73;100.00;102682.16;4998731;28;21147;-68
2024/03/22 02:16:29;;;;;;;42.40;30.50;;;;;;;9.50;100.00;102650.38;4976616;28;20444;-67
2024/03/22 02:18:55;;;;;;;43.10;28.10;;;;;;;9.17;100.00;102590.19;4980354;28;20708;-67
2024/03/22 02:21:20;;;;;;;42.33;30.30;;;;;;;9.22;100.00;102598.59;4993239;28;20464;-67
2024/03/22 02:23:45;;;;;;;44.50;32.40;;;;;;;9.38;100.00;102600.69;4995871;28;20186;-67
2024/03/22 02:26:11;;;;;;;44.83;30.80;;;;;;;9.58;100.00;102630.91;4998525;28;20913;-67
2024/03/22 02:28:36;;;;;;;43.20;31.13;;;;;;;9.77;100.00;102648.69;4998732;28;20186;-67
2024/03/22 02:31:03;;;;;;;44.90;31.17;;;;;;;9.80;100.00;102647.56;4997617;28;20287;-67
2024/03/22 02:33:29;;;;;;;44.53;31.87;;;;;;;9.66;100.00;102614.06;4996541;28;20255;-67
2024/03/22 02:35:54;;;;;;;42.67;30.30;;;;;;;9.72;100.00;102621.53;4996697;28;20550;-67
2024/03/22 02:38:20;;;;;;;44.27;31.80;;;;;;;9.31;100.00;102548.69;4995239;28;20944;-68
2024/03/22 02:40:46;;;;;;;43.40;30.43;;;;;;;9.79;100.00;102619.06;4978460;28;20192;-67
2024/03/22 02:43:12;;;;;;;46.87;31.50;;;;;;;9.89;100.00;102635.94;4974984;28;20209;-67
2024/03/22 02:45:38;;;;;;;47.37;31.60;;;;;;;9.74;100.00;102614.16;5002369;28;20476;-67
2024/03/22 02:48:04;;;;;;;44.97;31.10;;;;;;;9.05;100.00;102492.31;4995444;28;20455;-67
2024/03/22 02:50:34;;;;;;;45.90;33.17;;;;;;;9.89;100.00;102612.69;4997073;28;20185;-67
2024/03/22 02:52:59;;;;;;;46.63;31.90;;;;;;;9.57;100.00;102566.72;4998079;28;20609;-67
2024/03/22 02:55:25;;;;;;;43.90;32.07;;;;;;;9.76;100.00;102589.91;4994500;28;20432;-68
2024/03/22 02:57:50;;;;;;;47.17;33.70;;;;;;;10.02;100.00;102606.94;4999473;28;20654;-68
2024/03/22 03:00:16;;;;;;;47.90;35.30;;;;;;;9.75;100.00;102581.03;4982292;28;20660;-67
2024/03/22 03:02:41;;;;;;;43.30;31.47;;;;;;;9.56;100.00;102539.09;4995556;28;20721;-68
2024/03/22 03:05:07;;;;;;;48.27;32.53;;;;;;;9.78;100.00;102585.22;4999231;28;20926;-67
2024/03/22 03:07:34;;;;;;;47.90;33.87;;;;;;;9.57;100.00;102519.34;4977758;28;20185;-67
2024/03/22 03:09:59;;;;;;;50.97;34.10;;;;;;;9.96;100.00;102602.19;4981695;28;20539;-67
2024/03/22 03:12:25;;;;;;;52.87;34.47;;;;;;;9.08;100.00;102443.00;4992882;28;20467;-67
2024/03/22 03:14:50;;;;;;;50.73;36.00;;;;;;;9.26;100.00;102498.28;4996262;28;20180;-68
2024/03/22 03:17:17;;;;;;;49.40;32.63;;;;;;;9.91;100.00;102623.22;4998103;28;20691;-68
2024/03/22 03:19:42;;;;;;;46.97;33.40;;;;;;;9.86;100.00;102709.44;4985974;28;20464;-67
2024/03/22 03:22:07;;;;;;;52.40;34.33;;;;;;;9.49;100.00;102643.34;4985752;28;20213;-68
2024/03/22 03:24:33;;;;;;;52.27;33.07;;;;;;;9.81;100.00;102684.09;5000892;28;20287;-67
2024/03/22 03:26:58;;;;;;;46.03;33.73;;;;;;;9.85;100.00;102688.16;4995081;28;20192;-67
2024/03/22 03:29:24;;;;;;;51.67;35.80;;;;;;;9.14;100.00;102560.19;4995380;28;20192;-67
2024/03/22 03:31:49;;;;;;;54.50;36.27;;;;;;;9.15;100.00;102533.28;4998015;28;20208;-67
2024/03/22 03:34:15;;;;;;;54.00;37.80;;;;;;;8.82;100.00;102484.69;4996534;28;20192;-67
2024/03/22 03:36:41;;;;;;;58.17;36.10;;;;;;;9.85;100.00;102630.03;4998082;28;20719;-67
2024/03/22 03:39:06;;;;;;;53.53;35.37;;;;;;;9.03;100.00;102492.47;4995056;28;20443;-67
2024/03/22 03:41:32;;;;;;;49.90;32.83;;;;;;;9.72;100.00;102576.81;4994568;28;20295;-67
2024/03/22 03:43:57;;;;;;;57.07;36.37;;;;;;;9.72;100.00;102563.41;4999579;28;20208;-67
2024/03/22 03:46:23;;;;;;;53.00;36.67;;;;;;;9.49;100.00;102505.91;4994655;28;20219;-67
2024/03/22 03:48:48;;;;;;;54.07;36.00;;;;;;;9.81;100.00;102558.97;4995559;28;20196;-67
2024/03/22 03:51:13;;;;;;;54.47;37.40;;;;;;;9.93;100.00;102568.47;4994803;28;20564;-67
2024/03/22 03:53:39;;;;;;;58.40;37.93;;;;;;;9.64;100.00;102500.84;4999715;28;20238;-67
2024/03/22 03:56:04;;;;;;;55.77;36.23;;;;;;;9.71;100.00;102501.91;4995732;28;20181;-67
2024/03/22 03:58:30;;;;;;;59.73;37.00;;;;;;;9.58;100.00;102462.13;4999174;28;20193;-67
2024/03/22 04:00:55;;;;;;;53.87;36.63;;;;;;;9.94;100.00;102532.63;4997822;28;20196;-67
2024/03/22 04:03:20;;;;;;;52.80;36.80;;;;;;;9.27;100.00;102419.63;4994404;28;20194;-67
2024/03/22 04:05:46;;;;;;;55.23;36.47;;;;;;;9.79;100.00;102509.22;4979107;28;20220;-67
2024/03/22 04:08:11;;;;;;;52.10;36.00;;;;;;;9.15;100.00;102402.09;4981793;28;20228;-67
2024/03/22 04:10:37;;;;;;;59.73;34.93;;;;;;;9.89;100.00;102544.78;4995693;28;20197;-67
2024/03/22 04:13:02;;;;;;;58.63;40.37;;;;;;;9.21;100.00;102398.81;4993996;28;20209;-66
2024/03/22 04:15:28;;;;;;;55.90;38.60;;;;;;;9.42;100.00;102421.78;4996562;28;20579;-67
2024/03/22 04:17:56;;;;;;;55.90;36.90;;;;;;;10.06;100.00;102489.50;4995745;28;20197;-67
2024/03/22 04:20:22;;;;;;;56.57;38.70;;;;;;;9.08;100.00;102341.28;4977461;28;20193;-67
2024/03/22 04:22:49;;;;;;;53.40;37.53;;;;;;;10.06;100.00;102484.97;4999382;28;21233;-67
2024/03/22 04:25:15;;;;;;;60.40;38.67;;;;;;;10.04;100.00;102459.31;4999463;28;20224;-67
2024/03/22 04:27:40;;;;;;;53.63;36.07;;;;;;;9.48;100.00;102355.03;4996609;28;20471;-67
2024/03/22 04:30:06;;;;;;;51.50;36.87;;;;;;;9.59;100.00;102366.50;4993585;28;20203;-67
2024/03/22 04:32:31;;;;;;;58.60;36.67;;;;;;;9.10;100.00;102310.69;4993620;28;20212;-67
2024/03/22 04:34:57;;;;;;;58.87;37.97;;;;;;;9.41;100.00;102355.81;4994330;28;20510;-68
2024/03/22 04:37:23;;;;;;;59.97;38.23;;;;;;;9.90;100.00;102393.72;4995555;28;20272;-67
2024/03/22 04:39:49;;;;;;;56.70;38.47;;;;;;;9.85;100.00;102398.72;4977168;28;20223;-67
2024/03/22 04:42:15;;;;;;;53.70;37.40;;;;;;;9.30;100.00;102318.56;4979670;28;20503;-67
2024/03/22 04:44:41;;;;;;;57.50;37.23;;;;;;;9.77;100.00;102391.44;4977029;28;20260;-67
2024/03/22 04:47:06;;;;;;;56.07;36.77;;;;;;;9.34;100.00;102327.97;4995893;28;20444;-67
2024/03/22 04:49:32;;;;;;;53.97;36.90;;;;;;;9.44;100.00;102323.38;4976205;28;20208;-67
2024/03/22 04:51:57;;;;;;;55.03;35.10;;;;;;;9.99;100.00;102408.03;4998756;28;20212;-67
2024/03/22 04:54:23;;;;;;;51.80;35.00;;;;;;;9.65;100.00;102380.13;5003227;28;20185;-67
2024/03/22 04:56:48;;;;;;;57.07;36.90;;;;;;;9.84;100.00;102413.94;5003521;28;20189;-68
2024/03/22 04:59:13;;;;;;;55.10;35.93;;;;;;;9.48;100.00;102354.19;4999074;28;20193;-67
2024/03/22 05:01:39;;;;;;;56.93;36.70;;;;;;;9.96;100.00;102444.88;4983753;28;20208;-67
2024/03/22 05:04:04;;;;;;;60.10;36.57;;;;;;;9.44;100.00;102345.63;5003800;28;20299;-67
2024/03/22 05:06:30;;;;;;;51.30;34.63;;;;;;;10.08;100.00;102433.91;4997302;28;20185;-68
2024/03/22 05:08:55;;;;;;;59.37;37.70;;;;;;;10.12;100.00;102452.16;4983772;28;20573;-68
2024/03/22 05:11:21;;;;;;;61.23;36.90;;;;;;;9.88;100.00;102415.31;4996088;28;20594;-67
2024/03/22 05:13:46;;;;;;;56.80;36.00;;;;;;;10.11;100.00;102446.97;4984332;28;20196;-67
2024/03/22 05:16:12;;;;;;;52.50;36.47;;;;;;;10.10;100.00;102467.59;5002401;28;20274;-67
2024/03/22 05:18:37;;;;;;;58.07;36.00;;;;;;;9.22;100.00;102296.06;5000467;28;20283;-67
2024/03/22 05:21:03;;;;;;;55.97;36.70;;;;;;;10.01;100.00;102414.91;4999472;28;20204;-67
2024/03/22 05:23:29;;;;;;;56.13;35.43;;;;;;;9.30;100.00;102281.06;5004669;28;20276;-68
2024/03/22 05:25:54;;;;;;;66.50;38.40;;;;;;;9.84;100.00;102376.44;5002996;28;20244;-68
2024/03/22 05:28:19;;;;;;;65.20;39.00;;;;;;;9.40;100.00;102277.31;4989410;28;20678;-67
2024/03/22 05:30:45;;;;;;;63.73;40.20;;;;;;;9.80;100.00;102332.16;5003070;28;20198;-67
2024/03/22 05:33:11;;;;;;;55.20;37.40;;;;;;;9.98;100.00;102366.13;4985890;28;20202;-67
2024/03/22 05:35:36;;;;;;;58.67;39.93;;;;;;;10.29;100.00;102404.88;5002418;28;20440;-67
2024/03/22 05:38:02;;;;;;;59.73;37.00;;;;;;;9.69;100.00;102333.28;5003484;28;20280;-67
2024/03/22 05:40:27;;;;;;;54.93;35.60;;;;;;;9.93;100.00;102356.72;5003064;28;20287;-68
2024/03/22 05:42:53;;;;;;;54.70;34.00;;;;;;;9.57;100.00;102315.75;5001107;28;20623;-68
2024/03/22 05:45:18;;;;;;;65.13;38.10;;;;;;;9.81;100.00;102338.38;5003557;28;20646;-67
2024/03/22 05:47:43;;;;;;;53.70;34.60;;;;;;;9.28;100.00;102287.41;5000916;28;20196;-67
2024/03/22 05:50:09;;;;;;;60.30;35.67;;;;;;;9.21;100.00;102245.38;4999260;28;20209;-67
2024/03/22 05:52:34;;;;;;;56.53;34.37;;;;;;;9.40;100.00;102281.81;4986669;28;20972;-67
2024/03/22 05:55:00;;;;;;;58.50;35.53;;;;;;;10.28;100.00;102403.22;5003818;28;20185;-67
2024/03/22 05:57:26;;;;;;;52.60;34.43;;;;;;;9.61;100.00;102303.75;5002677;28;20194;-67
2024/03/22 05:59:53;;;;;;;57.13;35.97;;;;;;;10.05;100.00;102400.19;4982661;28;20182;-67
2024/03/22 06:02:18;;;;;;;61.87;33.53;;;;;;;10.25;100.00;102421.44;4982640;28;20651;-67
2024/03/22 06:04:44;;;;;;;54.37;32.87;;;;;;;10.13;100.00;102394.88;5000408;28;20478;-67
2024/03/22 06:07:09;;;;;;;50.37;31.97;;;;;;;10.19;100.00;102401.47;5003870;28;20197;-67
2024/03/22 06:09:45;;;;;;;57.57;33.30;;;;;;;9.77;100.00;102334.31;4986974;28;20185;-67
2024/03/22 06:12:10;;;;;;;57.30;33.00;;;;;;;10.16;100.00;102359.72;5003558;28;20467;-67
2024/03/22 06:14:36;;;;;;;49.33;31.57;;;;;;;10.00;100.00;102340.00;4999064;28;20471;-67
2024/03/22 06:17:03;;;;;;;55.43;33.73;;;;;;;9.39;100.00;102272.94;4999944;28;20208;-67
2024/03/22 06:19:29;;;;;;;50.50;33.20;;;;;;;9.89;100.00;102341.09;5002491;28;20689;-67
2024/03/22 06:21:54;;;;;;;47.50;30.60;;;;;;;10.15;100.00;102384.00;4981345;28;20468;-68
2024/03/22 06:24:20;;;;;;;55.90;32.07;;;;;;;9.76;100.00;102333.50;5000055;28;20661;-67
2024/03/22 06:26:45;;;;;;;51.80;31.50;;;;;;;9.48;100.00;102257.78;4984198;28;20285;-67
2024/03/22 06:29:11;;;;;;;50.63;30.33;;;;;;;10.03;100.00;102361.13;4997335;28;20200;-67
2024/03/22 06:31:36;;;;;;;48.17;31.93;;;;;;;10.04;100.00;102331.50;4975661;28;20209;-67
2024/03/22 06:34:04;;;;;;;50.80;32.13;;;;;;;10.14;100.00;102289.31;4996783;28;20233;-67
2024/03/22 06:36:34;;;;;;;45.73;30.87;;;;;;;10.10;100.00;102285.28;4982940;28;20200;-67
2024/03/22 06:39:00;;;;;;;47.23;29.13;;;;;;;10.10;100.00;102296.00;4999366;28;20494;-67
2024/03/22 06:41:26;;;;;;;54.27;29.67;;;;;;;9.29;100.00;102186.53;4981172;28;20455;-68
2024/03/22 06:43:51;;;;;;;50.00;29.47;;;;;;;9.33;100.00;102211.16;4999063;28;20284;-67
2024/03/22 06:46:17;;;;;;;45.73;29.20;;;;;;;9.21;100.00;102195.34;4981345;28;20459;-67
2024/03/22 06:48:42;;;;;;;41.57;26.50;;;;;;;9.93;100.00;102300.44;4998641;28;20677;-67
2024/03/22 06:51:08;;;;;;;44.70;27.90;;;;;;;9.93;100.00;102318.38;4994886;28;20245;-67
2024/03/22 06:53:33;;;;;;;37.17;25.23;;;;;;;8.95;100.00;102191.78;5000487;28;20249;-67
2024/03/22 06:55:59;;;;;;;39.37;26.90;;;;;;;9.84;100.00;102314.78;5002132;28;20196;-67
2024/03/22 06:58:25;;;;;;;44.93;27.97;;;;;;;9.67;100.00;102287.03;4981376;28;20189;-67
2024/03/22 07:00:50;;;;;;;46.87;27.47;;;;;;;9.99;100.00;102322.25;4999582;28;20192;-67
2024/03/22 07:03:17;;;;;;;42.83;28.10;;;;;;;9.05;100.00;102184.50;5002968;28;20204;-67
2024/03/22 07:05:42;;;;;;;40.73;24.93;;;;;;;8.89;100.00;102182.56;4982754;28;20216;-67
2024/03/22 07:08:08;;;;;;;44.07;26.87;;;;;;;8.73;100.00;102100.31;4998872;28;20432;-67
2024/03/22 07:10:34;;;;;;;44.13;25.63;;;;;;;9.56;100.00;102222.19;4982478;28;20189;-67
2024/03/22 07:12:59;;;;;;;34.63;24.00;;;;;;;9.84;100.00;102237.06;4997926;28;20880;-67
2024/03/22 07:15:24;;;;;;;37.50;23.63;;;;;;;9.31;100.00;102157.75;5000664;28;20189;-67
2024/03/22 07:17:51;;;;;;;34.40;22.60;;;;;;;9.07;100.00;102079.97;4985051;28;20658;-68
2024/03/22 07:20:16;;;;;;;39.75;24.95;;;;;;;9.66;100.00;102151.41;4979577;28;20216;-67
2024/03/22 07:22:42;;;;;;;32.23;22.67;;;;;;;9.62;100.00;102115.22;5000991;28;20992;-67
2024/03/22 07:25:11;;;;;;;34.50;22.53;;;;;;;9.84;100.00;102151.31;4981597;28;20479;-67
2024/03/22 07:27:36;;;;;;;31.77;22.03;;;;;;;9.90;100.00;102158.69;4999087;28;20177;-67
2024/03/22 07:30:02;;;;;;;28.87;20.40;;;;;;;9.07;100.00;102021.09;5000758;28;21253;-67
2024/03/22 07:32:29;;;;;;;27.73;18.30;;;;;;;8.94;100.00;102016.16;4998348;28;20219;-67
2024/03/22 07:34:54;;;;;;;25.70;17.87;;;;;;;9.37;100.00;102075.94;4999087;28;20966;-67
2024/03/22 07:37:20;;;;;;;27.00;16.40;;;;;;;9.39;100.00;102057.88;4997981;28;20444;-68
2024/03/22 07:39:46;;;;;;;22.20;14.80;;;;;;;8.78;100.00;101979.47;4978265;28;20197;-67
2024/03/22 07:42:11;;;;;;;21.27;15.23;;;;;;;9.06;100.00;102014.91;4996725;28;20742;-67
2024/03/22 07:44:36;;;;;;;24.30;16.10;;;;;;;9.18;100.00;102028.84;4996556;28;20233;-67
2024/03/22 07:47:02;;;;;;;25.60;15.60;;;;;;;9.26;100.00;102059.16;4980218;28;20199;-67
2024/03/22 07:49:27;;;;;;;25.10;16.03;;;;;;;7.46;100.00;101757.78;5002482;22;20228;-70
2024/03/22 07:51:53;;;;;;;23.80;15.27;;;;;;;9.67;100.00;102070.03;5003886;28;20289;-70
2024/03/22 07:54:19;;;;;;;28.13;15.90;;;;;;;8.95;100.00;101969.69;5015489;28;20196;-70
2024/03/22 07:56:44;;;;;;;25.73;15.33;;;;;;;8.98;100.00;101954.16;5007128;28;20698;-71
2024/03/22 07:59:10;;;;;;;34.93;16.57;;;;;;;8.79;100.00;101925.81;5008879;28;20447;-71
2024/03/22 08:01:35;;;;;;;24.00;15.13;;;;;;;9.26;100.00;101983.38;5019411;28;20307;-71
2024/03/22 08:04:01;;;;;;;23.30;15.20;;;;;;;9.49;100.00;101999.69;5005971;28;20200;-71
2024/03/22 08:06:26;;;;;;;29.53;17.07;;;;;;;9.54;100.00;102010.72;5005334;28;20219;-70
2024/03/22 08:08:52;;;;;;;24.83;16.83;;;;;;;9.65;100.00;102013.09;5006227;28;20271;-70
2024/03/22 08:11:17;;;;;;;27.27;16.70;;;;;;;9.39;100.00;101974.84;5001976;28;21461;-70
2024/03/22 08:13:42;;;;;;;25.17;15.47;;;;;;;9.03;100.00;101925.06;5003839;28;20199;-70
2024/03/22 08:16:08;;;;;;;28.20;15.20;;;;;;;9.45;100.00;101982.25;5003854;28;20873;-70
2024/03/22 08:18:33;;;;;;;26.00;15.20;;;;;;;8.68;100.00;101853.88;5002842;28;20185;-70
2024/03/22 08:20:59;;;;;;;25.93;14.30;;;;;;;9.58;100.00;102001.38;5000494;28;20594;-70
2024/03/22 08:23:25;;;;;;;24.07;14.70;;;;;;;8.71;100.00;101882.16;5007194;28;20268;-70
2024/03/22 08:25:50;;;;;;;22.67;13.70;;;;;;;9.56;100.00;101998.00;5007484;28;20208;-70
2024/03/22 08:28:16;;;;;;;24.43;14.00;;;;;;;9.33;100.00;101941.53;5006425;28;20188;-70
2024/03/22 08:30:42;;;;;;;25.50;13.80;;;;;;;9.64;100.00;101998.03;5001203;28;20177;-70
2024/03/22 08:33:07;;;;;;;19.97;12.60;;;;;;;8.96;100.00;101886.56;5009805;28;20209;-71
2024/03/22 08:35:33;;;;;;;19.60;12.73;;;;;;;9.57;100.00;101972.06;5010863;28;20882;-70
2024/03/22 08:37:58;;;;;;;24.20;12.33;;;;;;;9.52;100.00;101951.13;5003709;28;20189;-70
2024/03/22 08:40:24;;;;;;;20.33;11.70;;;;;;;8.82;100.00;101831.84;5021406;28;20714;-70
2024/03/22 08:42:50;;;;;;;19.80;11.00;;;;;;;9.02;100.00;101866.34;5021767;28;20213;-70
2024/03/22 08:45:16;;;;;;;24.80;11.17;;;;;;;9.50;100.00;101953.97;5009558;28;20817;-71
2024/03/22 08:47:42;;;;;;;20.40;11.53;;;;;;;9.62;100.00;101961.69;5006343;28;20224;-70
2024/03/22 08:50:08;;;;;;;21.23;10.60;;;;;;;9.10;100.00;101890.44;5003796;28;21133;-70
2024/03/22 08:52:36;;;;;;;21.10;11.37;;;;;;;9.69;100.00;101941.25;5006968;28;20841;-70
2024/03/22 08:55:01;;;;;;;14.90;10.50;;;;;;;8.85;100.00;101809.25;5008587;28;20482;-70
2024/03/22 08:57:27;;;;;;;19.80;10.60;;;;;;;9.65;100.00;101940.75;5006257;28;20479;-70
2024/03/22 08:59:52;;;;;;;15.47;9.57;;;;;;;9.76;100.00;101936.09;5003349;28;20200;-70
2024/03/22 09:02:18;;;;;;;13.40;8.40;;;;;;;9.38;100.00;101876.78;5008682;28;20220;-71
2024/03/22 09:04:43;;;;;;;16.20;8.20;;;;;;;9.74;100.00;101938.91;4998927;28;20213;-70
2024/03/22 09:07:09;;;;;;;13.73;7.87;;;;;;;9.08;100.00;101797.94;5007600;28;20197;-70
2024/03/22 09:09:34;;;;;;;12.10;8.20;;;;;;;9.61;100.00;101880.50;5005688;28;20192;-71
2024/03/22 09:11:59;;;;;;;11.10;7.13;;;;;;;9.28;100.00;101840.28;5007279;28;20224;-71
2024/03/22 09:14:25;;;;;;;13.20;7.80;;;;;;;9.83;100.00;101894.22;5008696;28;20207;-70
2024/03/22 09:16:51;;;;;;;12.73;8.03;;;;;;;9.43;100.00;101858.38;5007576;28;20240;-70
2024/03/22 09:19:16;;;;;;;10.70;6.80;;;;;;;9.66;100.00;101875.47;5017561;28;20923;-70
2024/03/22 09:21:42;;;;;;;11.07;6.50;;;;;;;9.76;100.00;101903.94;5005567;28;20197;-71
2024/03/22 09:24:08;;;;;;;11.30;6.57;;;;;;;9.18;100.00;101802.13;5006571;28;20283;-71
2024/03/22 09:26:33;;;;;;;10.83;6.90;;;;;;;9.72;100.00;101879.34;5009341;28;20485;-71
2024/03/22 09:28:59;;;;;;;9.73;6.20;;;;;;;9.21;100.00;101799.13;5007106;28;20197;-70
2024/03/22 09:31:24;;;;;;;12.20;6.93;;;;;;;9.13;100.00;101783.06;5008587;28;20647;-70
2024/03/22 09:33:50;;;;;;;9.17;5.93;;;;;;;9.32;100.00;101803.31;5006544;28;20208;-70
2024/03/22 09:36:15;;;;;;;9.53;5.43;;;;;;;9.56;100.00;101833.78;5007621;28;20200;-71
2024/03/22 09:38:41;;;;;;;12.77;6.30;;;;;;;9.70;100.00;101863.41;5008135;28;20185;-71
2024/03/22 09:41:06;;;;;;;11.60;6.60;;;;;;;9.86;100.00;101870.59;5008519;28;20189;-71
2024/03/22 09:43:34;;;;;;;11.23;6.30;;;;;;;8.96;100.00;101699.25;5010164;28;20450;-71
2024/03/22 09:46:00;;;;;;;10.50;5.70;;;;;;;9.72;100.00;101829.25;5010179;28;20311;-71
2024/03/22 09:48:26;;;;;;;9.37;5.97;;;;;;;9.36;100.00;101782.41;5007696;28;20904;-71
2024/03/22 09:50:53;;;;;;;8.27;4.93;;;;;;;9.73;100.00;101852.34;5004136;28;20435;-71
2024/03/22 09:53:19;;;;;;;9.30;5.13;;;;;;;9.07;100.00;101756.97;5008060;28;20189;-71
2024/03/22 09:55:46;;;;;;;9.40;5.27;;;;;;;9.76;100.00;101811.00;5008348;28;20905;-71
2024/03/22 09:58:12;;;;;;;9.70;5.50;;;;;;;8.93;100.00;101680.03;5020826;28;20454;-71
2024/03/22 10:00:38;;;;;;;9.83;4.73;;;;;;;9.34;100.00;101744.25;5008984;28;20435;-71
2024/03/22 10:03:04;;;;;;;9.80;5.20;;;;;;;9.27;100.00;101800.31;5004103;28;20677;-71
2024/03/22 10:05:30;;;;;;;8.83;4.97;;;;;;;9.61;100.00;101837.63;5002971;28;20251;-70
2024/03/22 10:07:55;;;;;;;9.33;4.90;;;;;;;9.70;100.00;101841.16;5006035;28;20443;-71
2024/03/22 10:10:21;;;;;;;7.60;4.13;;;;;;;9.56;100.00;101797.13;5007840;28;20771;-71
2024/03/22 10:12:47;;;;;;;7.20;3.50;;;;;;;9.63;100.00;101775.84;5004498;28;20460;-72
2024/03/22 10:15:13;;;;;;;7.83;3.93;;;;;;;9.68;100.00;101786.88;5008286;28;20185;-71
2024/03/22 10:17:39;;;;;;;6.53;3.07;;;;;;;9.60;100.00;101757.44;5008433;28;20513;-71
2024/03/22 10:20:12;;;;;;;7.80;4.10;;;;;;;9.69;100.00;101764.44;5002366;28;21089;-71
2024/03/22 10:22:38;;;;;;;6.17;3.30;;;;;;;9.48;100.00;101690.00;5005499;28;20506;-71
2024/03/22 10:25:06;;;;;;;8.13;4.17;;;;;;;9.01;100.00;101608.59;5006144;28;20475;-71
2024/03/22 10:27:32;;;;;;;7.20;3.47;;;;;;;9.23;100.00;101652.56;5007255;28;20820;-71
2024/03/22 10:29:58;;;;;;;6.90;3.70;;;;;;;9.23;100.00;101623.13;5002616;28;20448;-71
2024/03/22 10:32:24;;;;;;;6.20;3.00;;;;;;;9.64;100.00;101673.91;5019255;28;20292;-71
2024/03/22 10:34:50;;;;;;;7.57;3.13;;;;;;;9.49;100.00;101665.75;5006023;28;20530;-71
2024/03/22 10:37:16;;;;;;;6.60;3.10;;;;;;;9.56;100.00;101657.84;5002215;28;20451;-71
2024/03/22 10:39:44;;;;;;;5.67;2.40;;;;;;;9.85;100.00;101672.47;5008439;28;20494;-70
2024/03/22 10:42:11;;;;;;;6.00;2.73;;;;;;;9.23;100.00;101599.03;5003521;28;20224;-71
2024/03/22 10:44:36;;;;;;;6.40;2.50;;;;;;;9.78;100.00;101652.72;5005990;28;20439;-71
2024/03/22 10:47:05;;;;;;;5.97;2.67;;;;;;;9.11;100.00;101521.94;5003472;28;20807;-71
2024/03/22 10:49:36;;;;;;;6.13;2.63;;;;;;;8.98;100.00;101514.47;5002091;28;20254;-71
2024/03/22 10:52:03;;;;;;;6.60;2.53;;;;;;;9.53;100.00;101604.63;5003772;28;20471;-71
2024/03/22 10:54:40;;;;;;;5.00;1.90;;;;;;;9.68;100.00;101627.00;5002807;28;20494;-70
2024/03/22 10:57:11;;;;;;;8.40;2.77;;;;;;;9.50;100.00;101583.56;5003959;28;21022;-71
2024/03/22 10:59:37;;;;;;;5.53;1.97;;;;;;;9.31;100.00;101574.06;5021662;28;20439;-71
2024/03/22 11:02:04;;;;;;;5.10;2.00;;;;;;;9.10;100.00;101514.94;5002537;28;20511;-71
2024/03/22 11:04:30;;;;;;;5.20;2.10;;;;;;;9.66;100.00;101622.81;5006587;28;20189;-71